Decoded Metar for KMCN (MACON in GA, USA) (IATA:MCN) | Meteo·Mobile Aviation Weather
aviador You're here:

KMCN Decoded Metar

MACON in GA, USA
Report Time2019-12-16 12:10:00
UTC Time2019-12-16 12:23:36
Flight Rules lifr LIFR
WindCalm
Visibility402 m
Phenomena:Fog
Clouds:N/A
Ceiling400 ft
Temp04°C (ISA -10)
Dew Point04°C (100% RH)
AAT2.7°C
QNH1022 hPa
Density Alt-1,083 ft
Elevation358 ft
Report Wrong Elevation
Raw Report
KMCN 161210Z AUTO 00000KT 1/4SM FG VV004 04/04 A3019=

Extra information for KMCN:More info

Metar Taf Metar & Taf Last 4 Metars F.Rules Stats Wind Profile Meteogram Temp Stats Airport Information Weather charts Add Link Nearby VenuesMetar ALERT Operation Metar Decoded Social comments

AIRNAV info for KMCN